Time;durP1;ratioP1;P1;durP2;ratioP2;P2;SDS_P1;SDS_P2;PMS_P1;PMS_P2;Temp;Humidity;BMP_temperature;BMP_pressure;BME280_temperature;BME280_humidity;BME280_pressure;Samples;Min_cycle;Max_cycle;Signal;HPM_P1;HPM_P2
2021/05/30 00:00:07;;;;;;;0.70;0.50;;;12.90;99.90;;;;;;5017841;28;20425;-77
2021/05/30 00:02:33;;;;;;;0.70;0.50;;;12.90;99.90;;;;;;5018348;28;20790;-78
2021/05/30 00:04:59;;;;;;;0.70;0.50;;;12.80;99.90;;;;;;5018365;28;20429;-80
2021/05/30 00:07:24;;;;;;;0.70;0.50;;;12.80;99.90;;;;;;5035813;28;20473;-79
2021/05/30 00:09:53;;;;;;;0.70;0.50;;;12.80;99.90;;;;;;5036166;28;20171;-79
2021/05/30 00:12:19;;;;;;;0.70;0.50;;;12.80;99.90;;;;;;5018748;28;20194;-79
2021/05/30 00:14:45;;;;;;;0.70;0.50;;;12.80;99.90;;;;;;5018390;28;20799;-79
2021/05/30 00:17:12;;;;;;;0.70;0.50;;;12.70;99.90;;;;;;5018316;28;20452;-78
2021/05/30 00:19:37;;;;;;;0.70;0.50;;;12.80;99.90;;;;;;5017765;28;20179;-79
2021/05/30 00:22:03;;;;;;;0.70;0.50;;;12.70;99.90;;;;;;5036477;28;20425;-80
2021/05/30 00:24:29;;;;;;;0.70;0.50;;;12.70;99.90;;;;;;5016767;28;20813;-80
2021/05/30 00:26:54;;;;;;;0.70;0.50;;;12.60;99.90;;;;;;5033174;28;20281;-79
2021/05/30 00:29:20;;;;;;;0.70;0.50;;;12.60;99.90;;;;;;5014572;28;20194;-79
2021/05/30 00:31:46;;;;;;;0.70;0.50;;;12.50;99.90;;;;;;5033010;28;20654;-79
2021/05/30 00:34:11;;;;;;;0.70;0.50;;;12.50;99.90;;;;;;5017915;28;20430;-78
2021/05/30 00:36:37;;;;;;;1.30;1.20;;;12.40;99.90;;;;;;5018184;28;20199;-79
2021/05/30 00:39:03;;;;;;;0.70;0.50;;;12.40;99.90;;;;;;5016665;28;20293;-78
2021/05/30 00:41:29;;;;;;;0.70;0.50;;;12.40;99.90;;;;;;5018054;28;20210;-79
2021/05/30 00:43:55;;;;;;;0.70;0.50;;;12.40;99.90;;;;;;5017996;28;20410;-80
2021/05/30 00:46:21;;;;;;;1.43;1.33;;;12.30;99.90;;;;;;5035350;28;20226;-78
2021/05/30 00:48:48;;;;;;;0.70;0.50;;;12.30;99.90;;;;;;5016883;28;20428;-79
2021/05/30 00:51:14;;;;;;;0.70;0.50;;;12.30;99.90;;;;;;5015022;28;20430;-78
2021/05/30 00:53:41;;;;;;;0.70;0.50;;;12.20;99.90;;;;;;5018040;28;20787;-79
2021/05/30 00:56:08;;;;;;;0.70;0.50;;;12.20;99.90;;;;;;5018499;28;20943;-76
2021/05/30 00:58:35;;;;;;;0.73;0.57;;;12.20;99.90;;;;;;5035639;28;20576;-79
2021/05/30 01:01:01;;;;;;;0.70;0.60;;;12.20;99.90;;;;;;5017052;28;20473;-75
2021/05/30 01:03:26;;;;;;;0.70;0.50;;;12.10;99.90;;;;;;5033248;28;20804;-78
2021/05/30 01:05:52;;;;;;;0.77;0.60;;;12.10;99.90;;;;;;5034379;28;20796;-81
2021/05/30 01:08:26;;;;;;;0.70;0.50;;;12.00;99.90;;;;;;5014751;28;20270;-80
2021/05/30 01:10:54;;;;;;;0.70;0.50;;;12.00;99.90;;;;;;5019103;28;20418;-79
2021/05/30 01:13:20;;;;;;;0.70;0.50;;;12.00;99.90;;;;;;5021701;28;20422;-80
2021/05/30 01:15:48;;;;;;;0.70;0.50;;;11.90;99.90;;;;;;5021646;28;20422;-80
2021/05/30 01:18:24;;;;;;;0.70;0.50;;;11.90;99.90;;;;;;5037646;28;20496;-80
2021/05/30 01:20:51;;;;;;;0.70;0.50;;;11.90;99.90;;;;;;5037046;28;20445;-79
2021/05/30 01:23:18;;;;;;;0.70;0.50;;;11.80;99.90;;;;;;5019263;28;20453;-78
2021/05/30 01:25:45;;;;;;;0.70;0.53;;;11.80;99.90;;;;;;5019687;28;20442;-80
2021/05/30 01:28:11;;;;;;;0.70;0.50;;;11.80;99.90;;;;;;5020998;28;20469;-80
2021/05/30 01:30:36;;;;;;;0.70;0.50;;;11.80;99.90;;;;;;5022219;28;20434;-75
2021/05/30 01:33:03;;;;;;;0.70;0.50;;;11.80;99.90;;;;;;5017951;28;20655;-78
2021/05/30 01:35:29;;;;;;;0.80;0.60;;;11.70;99.90;;;;;;5020651;28;20430;-81
2021/05/30 01:37:55;;;;;;;0.70;0.50;;;11.70;99.90;;;;;;5020537;28;20489;-80
2021/05/30 01:40:23;;;;;;;0.70;0.50;;;11.70;99.90;;;;;;5037292;28;20437;-79
2021/05/30 01:42:50;;;;;;;0.70;0.50;;;11.70;99.90;;;;;;5037979;28;20456;-80
2021/05/30 01:45:17;;;;;;;0.70;0.50;;;11.60;99.90;;;;;;5019016;28;20583;-79
2021/05/30 01:47:44;;;;;;;0.70;0.50;;;11.60;99.90;;;;;;5038169;28;20461;-80
2021/05/30 01:50:17;;;;;;;0.70;0.50;;;11.60;99.90;;;;;;5018229;28;20459;-79
2021/05/30 01:52:43;;;;;;;0.70;0.60;;;11.60;99.90;;;;;;5038393;28;20454;-80
2021/05/30 01:55:24;;;;;;;0.70;0.50;;;11.50;99.90;;;;;;5037885;28;20438;-80
2021/05/30 01:57:53;;;;;;;0.70;0.50;;;11.50;99.90;;;;;;5036320;28;20199;-79
2021/05/30 02:00:19;;;;;;;0.70;0.60;;;11.50;99.90;;;;;;5019915;28;20430;-80
2021/05/30 02:02:48;;;;;;;0.70;0.50;;;11.50;99.90;;;;;;5020955;28;20472;-80
2021/05/30 02:05:14;;;;;;;4.53;1.03;;;11.40;99.90;;;;;;5016613;28;20480;-79
2021/05/30 02:07:41;;;;;;;0.70;0.50;;;11.40;99.90;;;;;;5019853;28;20825;-78
2021/05/30 02:10:09;;;;;;;0.80;0.67;;;11.30;99.90;;;;;;5037237;28;20183;-79
2021/05/30 02:12:35;;;;;;;0.70;0.50;;;11.30;99.90;;;;;;5036789;28;20438;-79
2021/05/30 02:15:03;;;;;;;0.70;0.50;;;11.30;99.90;;;;;;5036231;28;20430;-79
2021/05/30 02:17:28;;;;;;;0.70;0.50;;;11.30;99.90;;;;;;5036521;28;21004;-79
2021/05/30 02:19:56;;;;;;;0.70;0.50;;;11.20;99.90;;;;;;5035553;28;20431;-80
2021/05/30 02:22:21;;;;;;;0.70;0.50;;;11.20;99.90;;;;;;5017453;28;20207;-80
2021/05/30 02:24:47;;;;;;;0.70;0.50;;;11.20;99.90;;;;;;5017599;28;20434;-79
2021/05/30 02:27:13;;;;;;;0.70;0.50;;;11.10;99.90;;;;;;5019541;28;20203;-79
2021/05/30 02:29:41;;;;;;;0.70;0.50;;;11.10;99.90;;;;;;5017845;28;20480;-79
2021/05/30 02:32:09;;;;;;;0.70;0.50;;;11.10;99.90;;;;;;5016553;28;20210;-78
2021/05/30 02:34:35;;;;;;;0.70;0.50;;;11.10;99.90;;;;;;5013721;28;20434;-80
2021/05/30 02:37:02;;;;;;;0.70;0.50;;;11.10;99.90;;;;;;5019145;28;20468;-78
2021/05/30 02:39:28;;;;;;;0.70;0.50;;;11.00;99.90;;;;;;5018936;28;20438;-79
2021/05/30 02:41:54;;;;;;;0.70;0.50;;;11.00;99.90;;;;;;5019458;28;20474;-80
2021/05/30 02:44:19;;;;;;;0.70;0.50;;;11.00;99.90;;;;;;5037538;28;20454;-80
2021/05/30 02:46:45;;;;;;;0.70;0.50;;;10.90;99.90;;;;;;5016463;28;20207;-80
2021/05/30 02:49:11;;;;;;;0.70;0.50;;;10.90;99.90;;;;;;5018609;28;20183;-80
2021/05/30 02:51:36;;;;;;;0.80;0.70;;;10.90;99.90;;;;;;5017340;28;20612;-80
2021/05/30 02:54:02;;;;;;;0.70;0.50;;;10.90;99.90;;;;;;5018712;28;20195;-80
2021/05/30 02:56:28;;;;;;;0.70;0.50;;;10.90;99.90;;;;;;5018869;28;20269;-78
2021/05/30 02:58:54;;;;;;;0.70;0.50;;;10.80;99.90;;;;;;5019125;28;20491;-79
2021/05/30 03:01:20;;;;;;;0.70;0.50;;;10.80;99.90;;;;;;5017713;28;20607;-79
2021/05/30 03:03:46;;;;;;;0.70;0.50;;;10.80;99.90;;;;;;5035591;28;20599;-80
2021/05/30 03:06:12;;;;;;;0.93;0.83;;;10.80;99.90;;;;;;5018580;28;20450;-79
2021/05/30 03:08:38;;;;;;;0.70;0.50;;;10.80;99.90;;;;;;5019953;28;20843;-80
2021/05/30 03:11:03;;;;;;;0.70;0.50;;;10.70;99.90;;;;;;5019833;28;20197;-78
2021/05/30 03:13:29;;;;;;;0.70;0.50;;;10.80;99.90;;;;;;5037671;28;20224;-79
2021/05/30 03:15:54;;;;;;;0.70;0.50;;;10.70;99.90;;;;;;5019807;28;20190;-80
2021/05/30 03:18:20;;;;;;;0.70;0.50;;;10.70;99.90;;;;;;5034766;28;20202;-78
2021/05/30 03:20:45;;;;;;;0.70;0.50;;;10.60;99.90;;;;;;5015857;28;20175;-79
2021/05/30 03:23:11;;;;;;;0.70;0.50;;;10.60;99.90;;;;;;5012398;28;20687;-79
2021/05/30 03:25:38;;;;;;;0.70;0.50;;;10.60;99.90;;;;;;5033467;28;20176;-79
2021/05/30 03:28:04;;;;;;;0.70;0.50;;;10.60;99.90;;;;;;5018760;28;20195;-79
2021/05/30 03:30:30;;;;;;;0.70;0.50;;;10.60;99.90;;;;;;5017728;28;20429;-79
2021/05/30 03:32:55;;;;;;;0.70;0.50;;;10.50;99.90;;;;;;5034717;28;20785;-78
2021/05/30 03:35:21;;;;;;;0.70;0.50;;;10.50;99.90;;;;;;5020497;28;20167;-79
2021/05/30 03:37:47;;;;;;;0.70;0.50;;;10.50;99.90;;;;;;5035862;28;20206;-79
2021/05/30 03:40:27;;;;;;;0.70;0.50;;;10.50;99.90;;;;;;5031968;28;20588;-79
2021/05/30 03:42:53;;;;;;;0.70;0.50;;;10.50;99.90;;;;;;5034374;28;20520;-79
2021/05/30 03:45:22;;;;;;;0.70;0.50;;;10.50;99.90;;;;;;5036110;28;20440;-79
2021/05/30 03:47:49;;;;;;;0.70;0.50;;;10.50;99.90;;;;;;5019492;28;20477;-80
2021/05/30 03:50:15;;;;;;;0.70;0.50;;;10.50;99.90;;;;;;5019742;28;20504;-80
2021/05/30 03:52:40;;;;;;;0.70;0.50;;;10.50;99.90;;;;;;5018420;28;20438;-79
2021/05/30 03:55:07;;;;;;;0.70;0.50;;;10.40;99.90;;;;;;5038765;28;20434;-79
2021/05/30 03:57:34;;;;;;;0.70;0.50;;;10.50;99.90;;;;;;5019665;28;20199;-78
2021/05/30 04:00:01;;;;;;;0.70;0.60;;;10.40;99.90;;;;;;5020435;28;20758;-79
2021/05/30 04:02:26;;;;;;;0.70;0.50;;;10.50;99.90;;;;;;5016561;28;20448;-79
2021/05/30 04:04:52;;;;;;;0.70;0.50;;;10.50;99.90;;;;;;5015511;28;20430;-79
2021/05/30 04:07:17;;;;;;;0.70;0.50;;;10.50;99.90;;;;;;5030526;28;20234;-78
2021/05/30 04:09:43;;;;;;;0.70;0.50;;;10.50;99.90;;;;;;5015644;28;20669;-79
2021/05/30 04:12:09;;;;;;;0.70;0.50;;;10.50;99.90;;;;;;5035220;28;20189;-79
2021/05/30 04:14:35;;;;;;;4.43;1.63;;;10.50;99.90;;;;;;5018396;28;20739;-79
2021/05/30 04:17:00;;;;;;;0.70;0.60;;;10.50;99.90;;;;;;5020985;28;20459;-79
2021/05/30 04:19:26;;;;;;;0.70;0.50;;;10.50;99.90;;;;;;5020872;28;20552;-80
2021/05/30 04:21:51;;;;;;;0.70;0.50;;;10.50;99.90;;;;;;5019716;28;20187;-78
2021/05/30 04:24:17;;;;;;;0.70;0.50;;;10.60;99.90;;;;;;5020247;28;20706;-78
2021/05/30 04:26:43;;;;;;;0.70;0.50;;;10.60;99.90;;;;;;5036467;28;20195;-80
2021/05/30 04:29:08;;;;;;;0.70;0.50;;;10.70;99.90;;;;;;5018712;28;20779;-80
2021/05/30 04:31:34;;;;;;;0.70;0.50;;;10.70;99.90;;;;;;5032821;28;20191;-79
2021/05/30 04:33:59;;;;;;;0.70;0.50;;;10.80;99.90;;;;;;5032556;28;20270;-79
2021/05/30 04:36:25;;;;;;;0.70;0.50;;;10.80;99.90;;;;;;5019871;28;20206;-80
2021/05/30 04:38:51;;;;;;;0.70;0.50;;;10.80;99.90;;;;;;5017601;28;20179;-80
2021/05/30 04:41:16;;;;;;;0.70;0.70;;;10.90;99.90;;;;;;5012192;28;20205;-79
2021/05/30 04:43:42;;;;;;;0.70;0.50;;;11.00;99.90;;;;;;5016361;28;20191;-78
2021/05/30 04:46:07;;;;;;;0.70;0.50;;;11.00;99.90;;;;;;5019824;28;20187;-80
2021/05/30 04:48:33;;;;;;;0.70;0.50;;;11.00;99.90;;;;;;5022318;28;20207;-79
2021/05/30 04:51:13;;;;;;;0.70;0.50;;;11.10;99.90;;;;;;5023275;28;20180;-78
2021/05/30 04:53:44;;;;;;;0.70;0.70;;;11.20;99.90;;;;;;5037927;28;20245;-76
2021/05/30 04:56:11;;;;;;;0.70;0.50;;;11.30;99.90;;;;;;5021444;28;20495;-80
2021/05/30 04:58:37;;;;;;;0.70;0.50;;;11.40;99.90;;;;;;5021476;28;20457;-80
2021/05/30 05:01:04;;;;;;;0.70;0.50;;;11.50;99.90;;;;;;5023482;28;20444;-79
2021/05/30 05:03:31;;;;;;;0.70;0.50;;;11.50;99.90;;;;;;5021920;28;20193;-80
2021/05/30 05:05:57;;;;;;;0.70;0.50;;;11.60;99.90;;;;;;5038106;28;20430;-79
2021/05/30 05:08:22;;;;;;;1.20;1.00;;;11.70;99.90;;;;;;5023345;28;20496;-79
2021/05/30 05:10:49;;;;;;;1.63;0.87;;;11.80;99.90;;;;;;5041345;28;20731;-79
2021/05/30 05:13:15;;;;;;;0.70;0.50;;;12.00;99.90;;;;;;5020557;28;20645;-78
2021/05/30 05:15:51;;;;;;;0.70;0.50;;;12.10;99.90;;;;;;5023374;28;20422;-79
2021/05/30 05:18:22;;;;;;;0.70;0.50;;;12.20;99.90;;;;;;5040618;28;20867;-79
2021/05/30 05:20:48;;;;;;;0.70;0.50;;;12.40;99.90;;;;;;5039576;28;20438;-79
2021/05/30 05:23:15;;;;;;;1.00;0.80;;;12.60;99.90;;;;;;5040789;28;20448;-80
2021/05/30 05:25:40;;;;;;;0.70;0.50;;;12.70;99.90;;;;;;5022527;28;20580;-80
2021/05/30 05:28:06;;;;;;;0.70;0.60;;;12.80;99.90;;;;;;5035853;28;20509;-80
2021/05/30 05:30:32;;;;;;;0.70;0.50;;;13.00;99.90;;;;;;5039680;28;20195;-79
2021/05/30 05:32:59;;;;;;;1.17;0.90;;;13.10;99.90;;;;;;5021006;28;20437;-80
2021/05/30 05:35:26;;;;;;;0.70;0.50;;;13.20;99.90;;;;;;5020522;28;20445;-80
2021/05/30 05:37:56;;;;;;;0.70;0.50;;;13.40;99.90;;;;;;5039396;28;20484;-79
2021/05/30 05:40:24;;;;;;;0.70;0.50;;;13.60;99.90;;;;;;5045373;28;20471;-80
2021/05/30 05:42:51;;;;;;;0.70;0.60;;;13.70;99.90;;;;;;5007772;28;20441;-80
2021/05/30 05:45:17;;;;;;;1.10;0.80;;;13.90;99.90;;;;;;5028632;28;20572;-79
2021/05/30 05:47:44;;;;;;;0.70;0.50;;;14.10;99.90;;;;;;5036461;28;20462;-80
2021/05/30 05:50:11;;;;;;;0.90;0.90;;;14.30;99.90;;;;;;5037734;28;20457;-79
2021/05/30 05:52:37;;;;;;;0.70;0.50;;;14.50;99.90;;;;;;5016578;28;20434;-81
2021/05/30 05:55:05;;;;;;;0.80;0.70;;;14.70;99.90;;;;;;5029633;28;20957;-81
2021/05/30 05:57:34;;;;;;;0.80;0.60;;;14.90;99.90;;;;;;5033550;28;20516;-79
2021/05/30 05:59:59;;;;;;;0.80;0.70;;;15.00;99.90;;;;;;5019502;28;20438;-80
2021/05/30 06:02:25;;;;;;;0.80;0.70;;;15.20;99.90;;;;;;5044634;28;20469;-80
2021/05/30 06:04:51;;;;;;;0.70;0.50;;;15.40;99.90;;;;;;5016636;28;20192;-79
2021/05/30 06:07:16;;;;;;;1.40;1.23;;;15.70;99.90;;;;;;5037251;28;20257;-79
2021/05/30 06:09:42;;;;;;;0.73;0.50;;;16.00;99.90;;;;;;5018261;28;20411;-78
2021/05/30 06:12:08;;;;;;;0.70;0.50;;;16.30;99.90;;;;;;5025467;28;20186;-80
2021/05/30 06:14:34;;;;;;;0.77;0.50;;;16.40;99.90;;;;;;5022059;28;20172;-79
2021/05/30 06:17:00;;;;;;;0.70;0.50;;;16.70;99.90;;;;;;5014048;28;21051;-82
2021/05/30 06:19:26;;;;;;;0.80;0.50;;;16.90;99.90;;;;;;5045286;28;20179;-81
2021/05/30 06:21:52;;;;;;;1.20;0.80;;;17.00;99.90;;;;;;5027261;28;20513;-80
2021/05/30 06:24:17;;;;;;;0.80;0.50;;;17.20;99.90;;;;;;5019010;28;20947;-80
2021/05/30 06:26:43;;;;;;;0.80;0.50;;;17.60;99.90;;;;;;5019091;28;20222;-80
2021/05/30 06:29:09;;;;;;;0.73;0.50;;;17.80;99.90;;;;;;5032614;28;20174;-81
2021/05/30 06:31:34;;;;;;;0.80;0.67;;;18.10;99.90;;;;;;5023992;28;20183;-81
2021/05/30 06:34:00;;;;;;;0.73;0.50;;;18.10;99.90;;;;;;5014341;28;20178;-83
2021/05/30 06:36:25;;;;;;;0.70;0.50;;;18.10;99.90;;;;;;5035406;28;20179;-79
2021/05/30 06:38:51;;;;;;;0.73;0.50;;;18.30;99.90;;;;;;5021937;28;20596;-81
2021/05/30 06:41:17;;;;;;;0.80;0.50;;;18.40;99.90;;;;;;5019262;28;20183;-83
2021/05/30 06:43:44;;;;;;;0.80;0.50;;;18.60;99.90;;;;;;5020720;28;20207;-83
2021/05/30 06:46:09;;;;;;;1.23;1.13;;;18.80;99.90;;;;;;5017791;28;20452;-82
2021/05/30 06:48:35;;;;;;;0.80;0.60;;;19.00;99.90;;;;;;5032816;28;20536;-81
2021/05/30 06:51:14;;;;;;;0.77;0.50;;;19.20;99.90;;;;;;5022816;28;20266;-81
2021/05/30 06:53:40;;;;;;;0.80;0.50;;;19.50;99.90;;;;;;5016291;28;20959;-81
2021/05/30 06:56:06;;;;;;;0.80;0.50;;;19.50;99.90;;;;;;5017416;28;20482;-83
2021/05/30 06:58:32;;;;;;;0.80;0.50;;;19.20;99.90;;;;;;5018977;28;20207;-80
2021/05/30 07:00:58;;;;;;;0.80;0.60;;;19.40;99.90;;;;;;5015857;28;20183;-81
2021/05/30 07:03:23;;;;;;;0.77;0.50;;;19.70;99.90;;;;;;5019104;28;20438;-82
2021/05/30 07:05:50;;;;;;;0.80;0.50;;;20.00;99.90;;;;;;5014506;28;20512;-79
2021/05/30 07:08:15;;;;;;;0.80;0.50;;;20.40;99.90;;;;;;5015494;28;20802;-80
2021/05/30 07:10:41;;;;;;;0.80;0.50;;;20.40;99.90;;;;;;5018736;28;20465;-82
2021/05/30 07:13:07;;;;;;;0.80;0.50;;;20.60;99.90;;;;;;5026638;28;20175;-81
2021/05/30 07:15:32;;;;;;;0.90;0.77;;;20.80;99.90;;;;;;5021793;28;20519;-82
2021/05/30 07:17:58;;;;;;;0.90;0.60;;;21.10;99.90;;;;;;5017423;28;20195;-82
2021/05/30 07:20:23;;;;;;;0.80;0.50;;;21.30;99.90;;;;;;5014545;28;20546;-82
2021/05/30 07:22:49;;;;;;;0.80;0.50;;;21.70;99.90;;;;;;5016065;28;20187;-82
2021/05/30 07:25:15;;;;;;;0.80;0.50;;;21.70;99.90;;;;;;5014548;28;20179;-83
2021/05/30 07:27:40;;;;;;;0.80;0.50;;;21.60;99.90;;;;;;5014972;28;20242;-81
2021/05/30 07:30:07;;;;;;;0.80;0.50;;;21.60;99.90;;;;;;5032504;28;20699;-79
2021/05/30 07:32:33;;;;;;;0.80;0.50;;;22.10;99.90;;;;;;5041092;28;20235;-80
2021/05/30 07:34:59;;;;;;;0.80;0.50;;;22.60;99.90;;;;;;5024559;28;20434;-80
2021/05/30 07:37:25;;;;;;;0.80;0.60;;;22.70;99.90;;;;;;5024816;28;20458;-81
2021/05/30 07:39:50;;;;;;;0.80;0.50;;;22.70;99.90;;;;;;5035707;28;20190;-81
2021/05/30 07:42:16;;;;;;;0.80;0.50;;;23.20;99.90;;;;;;5024373;28;20183;-81
2021/05/30 07:44:41;;;;;;;0.80;0.57;;;23.40;96.60;;;;;;5026272;28;20207;-80
2021/05/30 07:47:07;;;;;;;0.80;0.50;;;23.70;96.30;;;;;;5019629;28;20554;-81
2021/05/30 07:49:33;;;;;;;0.80;0.50;;;23.90;92.50;;;;;;5029431;28;20190;-80
2021/05/30 07:51:59;;;;;;;0.80;0.50;;;24.00;91.90;;;;;;5039630;28;20187;-80
2021/05/30 07:54:25;;;;;;;0.80;0.50;;;23.80;84.50;;;;;;5029699;28;20442;-80
2021/05/30 07:56:51;;;;;;;1.23;0.73;;;23.40;86.70;;;;;;5039393;28;20549;-81
2021/05/30 07:59:27;;;;;;;0.80;0.50;;;23.70;87.00;;;;;;5037623;28;20462;-82
2021/05/30 08:01:53;;;;;;;0.80;0.50;;;24.00;87.10;;;;;;5031552;28;20676;-81
2021/05/30 08:04:19;;;;;;;14.33;1.67;;;24.50;82.10;;;;;;5030060;28;20465;-81
2021/05/30 08:06:48;;;;;;;0.80;0.50;;;24.40;78.30;;;;;;5017068;28;20218;-82
2021/05/30 08:09:13;;;;;;;0.80;0.60;;;24.00;76.90;;;;;;5019843;28;20209;-80
2021/05/30 08:11:39;;;;;;;0.80;0.70;;;24.10;82.30;;;;;;5014832;28;21239;-82
2021/05/30 08:14:04;;;;;;;0.80;0.50;;;24.70;83.60;;;;;;5008887;28;20795;-83
2021/05/30 08:16:30;;;;;;;0.80;0.60;;;25.00;80.30;;;;;;5008598;28;20195;-81
2021/05/30 08:18:55;;;;;;;0.80;0.60;;;25.60;75.10;;;;;;5015192;28;20176;-81
2021/05/30 08:21:21;;;;;;;0.80;0.50;;;25.80;70.40;;;;;;5023790;28;20168;-82
2021/05/30 08:23:46;;;;;;;1.10;0.90;;;25.70;72.60;;;;;;5013914;28;20187;-84
2021/05/30 08:26:12;;;;;;;1.10;0.67;;;25.70;68.00;;;;;;5035935;28;20175;-79
2021/05/30 08:28:38;;;;;;;0.80;0.60;;;26.10;68.60;;;;;;5018176;28;20218;-80
2021/05/30 08:31:04;;;;;;;0.80;0.50;;;26.30;66.40;;;;;;5039603;28;20167;-82
2021/05/30 08:33:30;;;;;;;0.90;0.73;;;26.30;65.90;;;;;;5021163;28;20942;-79
2021/05/30 08:35:56;;;;;;;1.80;0.80;;;26.00;62.50;;;;;;5023782;28;20221;-82
2021/05/30 08:38:24;;;;;;;0.80;0.50;;;26.70;63.90;;;;;;5022496;28;20843;-82
2021/05/30 08:40:50;;;;;;;0.80;0.60;;;26.60;61.40;;;;;;5021744;28;20430;-81
2021/05/30 08:43:16;;;;;;;0.80;0.60;;;27.20;66.30;;;;;;5020839;28;20430;-81
2021/05/30 08:45:45;;;;;;;0.80;0.50;;;27.20;62.60;;;;;;5021833;28;20413;-81
2021/05/30 08:48:11;;;;;;;1.10;0.87;;;27.30;58.60;;;;;;5010587;28;20230;-80
2021/05/30 08:50:37;;;;;;;0.80;0.70;;;27.20;59.90;;;;;;5020723;28;20450;-80
2021/05/30 08:53:07;;;;;;;0.80;0.50;;;27.20;59.60;;;;;;5020637;28;20175;-80
2021/05/30 08:55:33;;;;;;;0.80;0.60;;;27.70;59.90;;;;;;5039730;28;20424;-81
2021/05/30 08:57:58;;;;;;;0.80;0.63;;;27.90;58.50;;;;;;5020118;28;20966;-79
2021/05/30 09:00:31;;;;;;;1.20;0.60;;;28.30;58.70;;;;;;5038131;28;20179;-82
2021/05/30 09:03:16;;;;;;;0.80;0.50;;;27.00;56.60;;;;;;5020187;28;20214;-80
2021/05/30 09:05:42;;;;;;;0.80;0.60;;;27.80;59.00;;;;;;5039167;28;20445;-80
2021/05/30 09:08:08;;;;;;;1.03;0.90;;;28.30;55.60;;;;;;5021488;28;20474;-80
2021/05/30 09:10:35;;;;;;;0.80;0.60;;;28.70;55.00;;;;;;5038806;28;20418;-79
2021/05/30 09:13:17;;;;;;;0.90;0.80;;;28.70;54.30;;;;;;5021297;28;20517;-79
2021/05/30 09:18:18;;;;;;;0.83;0.60;;;28.70;51.60;;;;;;5038131;28;21069;-84
2021/05/30 09:20:51;;;;;;;0.80;0.60;;;29.20;55.40;;;;;;5019541;28;20429;-83
2021/05/30 09:23:38;;;;;;;0.80;0.50;;;29.10;50.00;;;;;;5019540;28;20426;-85
2021/05/30 09:26:21;;;;;;;0.80;0.60;;;28.60;50.50;;;;;;5018902;28;20418;-84
2021/05/30 09:29:08;;;;;;;0.80;0.50;;;28.90;50.20;;;;;;5038051;28;20457;-83
2021/05/30 09:31:52;;;;;;;0.80;0.60;;;28.60;49.10;;;;;;5037290;28;20406;-85
2021/05/30 09:34:29;;;;;;;1.13;1.00;;;29.20;48.60;;;;;;5037512;28;20440;-84
2021/05/30 09:36:54;;;;;;;1.00;0.60;;;29.00;50.00;;;;;;5019320;28;20442;-84
2021/05/30 09:39:46;;;;;;;0.80;0.60;;;29.00;50.00;;;;;;5019679;28;20981;-84
2021/05/30 09:42:33;;;;;;;0.80;0.60;;;29.20;51.30;;;;;;5019942;28;20187;-84
2021/05/30 09:45:09;;;;;;;0.80;0.60;;;30.00;47.70;;;;;;5021209;28;20415;-84
2021/05/30 09:47:38;;;;;;;0.80;0.60;;;29.40;46.60;;;;;;5029241;28;20457;-83
2021/05/30 09:50:06;;;;;;;1.20;1.00;;;29.90;47.50;;;;;;5018737;28;20434;-83
2021/05/30 09:52:45;;;;;;;0.80;0.70;;;29.90;49.20;;;;;;5037718;28;20880;-84
2021/05/30 09:55:22;;;;;;;1.40;0.80;;;29.60;44.60;;;;;;5019060;28;20544;-83
2021/05/30 09:58:18;;;;;;;0.80;0.70;;;29.50;46.80;;;;;;5018680;28;20449;-83
2021/05/30 10:00:51;;;;;;;0.80;0.50;;;29.50;45.20;;;;;;5036436;28;20517;-82
2021/05/30 10:03:18;;;;;;;0.80;0.60;;;29.50;45.50;;;;;;5036653;28;20430;-82
2021/05/30 10:05:44;;;;;;;0.90;0.60;;;29.40;44.80;;;;;;5018759;28;20453;-83
2021/05/30 10:08:10;;;;;;;0.80;0.60;;;29.20;44.30;;;;;;5017973;28;20485;-83
2021/05/30 10:10:36;;;;;;;0.90;0.70;;;29.50;46.10;;;;;;5019171;28;20171;-83
2021/05/30 10:13:03;;;;;;;0.80;0.60;;;29.60;44.20;;;;;;5018549;28;20454;-84
2021/05/30 10:15:30;;;;;;;0.90;0.60;;;30.20;45.20;;;;;;5020297;28;20418;-83
2021/05/30 10:18:00;;;;;;;0.90;0.80;;;30.50;45.70;;;;;;5036235;28;20442;-84
2021/05/30 10:20:27;;;;;;;0.80;0.50;;;30.90;47.40;;;;;;5017540;28;20410;-83
2021/05/30 10:22:55;;;;;;;0.90;0.60;;;31.30;44.80;;;;;;5018061;28;20429;-83
2021/05/30 10:25:32;;;;;;;0.90;0.60;;;31.50;44.20;;;;;;5018407;28;20479;-84
2021/05/30 10:28:08;;;;;;;0.90;0.60;;;31.70;42.50;;;;;;5038266;28;20830;-84
2021/05/30 10:30:34;;;;;;;0.90;0.70;;;31.70;41.80;;;;;;5038179;28;20436;-84
2021/05/30 10:33:17;;;;;;;1.03;0.93;;;31.30;38.40;;;;;;5019963;28;20423;-85
2021/05/30 10:35:47;;;;;;;0.80;0.60;;;30.70;37.90;;;;;;5018116;28;20195;-84
2021/05/30 10:38:38;;;;;;;0.80;0.60;;;30.90;40.70;;;;;;5017948;28;20445;-84
2021/05/30 10:41:15;;;;;;;0.80;0.60;;;30.70;38.80;;;;;;5018135;28;20433;-84
2021/05/30 10:43:41;;;;;;;0.80;0.60;;;31.00;40.20;;;;;;5017727;28;20913;-83
2021/05/30 10:46:09;;;;;;;0.80;0.60;;;31.10;39.80;;;;;;5036223;28;20926;-84
2021/05/30 10:48:35;;;;;;;0.90;0.70;;;30.00;39.40;;;;;;5035787;28;20458;-84
2021/05/30 10:53:52;;;;;;;0.80;0.50;;;30.70;39.90;;;;;;5035786;28;20513;-81
2021/05/30 10:56:22;;;;;;;0.80;0.60;;;30.40;38.80;;;;;;5017594;28;20414;-83
2021/05/30 10:59:06;;;;;;;2.40;1.67;;;29.90;38.00;;;;;;5017419;28;20418;-83
2021/05/30 11:01:34;;;;;;;1.10;1.00;;;29.90;40.80;;;;;;5037272;28;20504;-84
2021/05/30 11:04:31;;;;;;;1.43;1.33;;;30.20;42.50;;;;;;5035941;28;20452;-83
2021/05/30 11:06:59;;;;;;;0.80;0.60;;;30.50;40.00;;;;;;5017336;28;20433;-83
2021/05/30 11:09:57;;;;;;;0.80;0.60;;;29.80;39.30;;;;;;5017261;28;20423;-84
2021/05/30 11:12:24;;;;;;;0.80;0.50;;;29.30;39.40;;;;;;5017472;28;20422;-83
2021/05/30 11:15:07;;;;;;;0.83;0.60;;;29.20;40.90;;;;;;5017587;28;20923;-83
2021/05/30 11:17:53;;;;;;;0.90;0.60;;;28.80;39.60;;;;;;5016418;28;20434;-82
2021/05/30 11:20:25;;;;;;;0.80;0.50;;;29.20;40.20;;;;;;5016669;28;20970;-83
2021/05/30 11:22:56;;;;;;;0.80;0.60;;;30.00;42.80;;;;;;5016021;28;20456;-83
2021/05/30 11:25:33;;;;;;;1.20;0.80;;;30.50;41.40;;;;;;5016952;28;20422;-83
2021/05/30 11:28:01;;;;;;;0.80;0.60;;;31.00;42.40;;;;;;5017115;28;20450;-84
2021/05/30 11:30:47;;;;;;;0.90;0.70;;;31.10;42.20;;;;;;5034637;28;20425;-83
2021/05/30 11:33:21;;;;;;;0.90;0.60;;;31.00;40.90;;;;;;5036115;28;20406;-85
2021/05/30 11:35:49;;;;;;;1.10;0.83;;;31.10;39.30;;;;;;5017403;28;20484;-84
2021/05/30 11:38:15;;;;;;;0.80;0.57;;;31.20;39.70;;;;;;5034994;28;20426;-83
2021/05/30 11:40:41;;;;;;;0.80;0.60;;;31.80;39.30;;;;;;5035707;28;20760;-84
2021/05/30 11:43:17;;;;;;;1.10;0.60;;;32.10;38.80;;;;;;5017491;28;20211;-83
2021/05/30 11:45:46;;;;;;;0.80;0.60;;;32.00;38.90;;;;;;5017520;28;20575;-84
2021/05/30 11:48:17;;;;;;;0.80;0.60;;;31.90;40.00;;;;;;5005212;28;20817;-84
2021/05/30 11:50:53;;;;;;;0.80;0.60;;;31.90;40.00;;;;;;5016275;28;20430;-84
2021/05/30 11:53:34;;;;;;;0.80;0.63;;;32.00;38.10;;;;;;5016963;28;20429;-83
2021/05/30 11:56:00;;;;;;;0.90;0.60;;;31.90;40.50;;;;;;5032629;28;20918;-84
2021/05/30 11:58:26;;;;;;;1.13;0.90;;;31.70;38.40;;;;;;5010351;28;20960;-83
2021/05/30 12:01:03;;;;;;;0.80;0.60;;;31.00;38.30;;;;;;5016605;28;20421;-83
2021/05/30 12:03:29;;;;;;;0.90;0.63;;;31.80;39.10;;;;;;5032726;28;20237;-84
2021/05/30 12:05:59;;;;;;;0.90;0.80;;;31.80;38.30;;;;;;5017323;28;20406;-84
2021/05/30 12:08:25;;;;;;;0.90;0.60;;;31.70;39.90;;;;;;5017135;28;20974;-84
2021/05/30 12:10:59;;;;;;;0.80;0.70;;;31.20;38.80;;;;;;5034489;28;20452;-84
2021/05/30 12:13:28;;;;;;;1.10;0.70;;;31.50;39.10;;;;;;5016902;28;20511;-84
2021/05/30 12:15:55;;;;;;;0.80;0.60;;;32.10;39.50;;;;;;5007742;28;20411;-84
2021/05/30 12:18:22;;;;;;;0.83;0.70;;;31.20;37.50;;;;;;5015782;28;20457;-84
2021/05/30 12:20:48;;;;;;;0.87;0.70;;;31.70;39.70;;;;;;5033765;28;20784;-84
2021/05/30 12:23:19;;;;;;;1.00;0.70;;;32.30;42.20;;;;;;5016870;28;20418;-83
2021/05/30 12:25:57;;;;;;;0.90;0.70;;;32.20;40.00;;;;;;5017475;28;20418;-84
2021/05/30 12:28:26;;;;;;;0.90;0.70;;;32.40;41.90;;;;;;5017639;28;20467;-85
2021/05/30 12:30:54;;;;;;;0.90;0.60;;;32.60;42.00;;;;;;5036296;28;20414;-84
2021/05/30 12:33:23;;;;;;;0.90;0.60;;;32.90;43.10;;;;;;5016560;28;21038;-84
2021/05/30 12:35:55;;;;;;;0.90;0.70;;;32.60;41.20;;;;;;5013060;28;20505;-84
2021/05/30 12:38:26;;;;;;;0.90;0.60;;;32.40;41.60;;;;;;5017379;28;20434;-83
2021/05/30 12:40:52;;;;;;;0.90;0.70;;;32.40;40.80;;;;;;5032908;28;20492;-83
2021/05/30 12:43:40;;;;;;;0.90;0.60;;;32.40;42.00;;;;;;5017095;28;20418;-83
2021/05/30 12:46:07;;;;;;;0.90;0.60;;;32.40;41.80;;;;;;5033341;28;20426;-82
2021/05/30 12:48:47;;;;;;;0.83;0.60;;;31.90;40.90;;;;;;5033858;28;20515;-82
2021/05/30 12:51:26;;;;;;;0.80;0.60;;;31.50;42.40;;;;;;5034227;28;20406;-82
2021/05/30 12:53:53;;;;;;;0.90;0.60;;;31.00;42.00;;;;;;5000123;28;20483;-82
2021/05/30 12:56:24;;;;;;;0.90;0.80;;;30.60;42.60;;;;;;5034648;28;20418;-83
2021/05/30 12:59:18;;;;;;;0.90;0.60;;;30.90;41.30;;;;;;5016212;28;20951;-83